createdAt,value
2023-05-06T00:04:16.199Z,60.54
2023-05-06T00:09:17.893Z,60.89
2023-05-06T00:14:19.316Z,61.51
2023-05-06T00:19:20.886Z,61.59
2023-05-06T00:24:22.311Z,61.46
2023-05-06T00:29:24.034Z,62.05
2023-05-06T00:34:25.519Z,61.87
2023-05-06T00:39:26.983Z,61.96
2023-05-06T00:44:29.142Z,62.35
2023-05-06T00:49:30.980Z,61.79
2023-05-06T00:54:32.553Z,61.59
2023-05-06T00:59:33.970Z,62.01
2023-05-06T01:04:36.057Z,61.76
2023-05-06T01:10:00.077Z,61.83
2023-05-06T01:15:14.859Z,62.58
2023-05-06T01:20:17.890Z,61.93
2023-05-06T01:25:21.287Z,62.35
2023-05-06T01:30:23.813Z,62.48
2023-05-06T01:35:58.490Z,63.05
2023-05-06T01:41:01.723Z,63.00
2023-05-06T01:46:03.645Z,63.19
2023-05-06T01:51:05.539Z,63.70
2023-05-06T01:56:07.520Z,63.93
2023-05-06T02:01:08.975Z,64.33
2023-05-06T02:06:10.750Z,63.85
2023-05-06T02:11:12.289Z,64.24
2023-05-06T02:16:13.758Z,63.91
2023-05-06T02:21:15.247Z,64.28
2023-05-06T02:26:16.722Z,63.63
2023-05-06T02:31:18.157Z,64.27
2023-05-06T02:36:19.584Z,63.36
2023-05-06T02:41:21.330Z,63.29
2023-05-06T02:46:23.021Z,64.01
2023-05-06T02:51:24.576Z,64.15
2023-05-06T02:56:26.118Z,63.98
2023-05-06T03:01:27.611Z,63.28
2023-05-06T03:06:29.082Z,63.16
2023-05-06T03:11:31.544Z,63.18
2023-05-06T03:16:33.154Z,62.96
2023-05-06T03:21:34.703Z,63.39
2023-05-06T03:26:36.206Z,63.46
2023-05-06T03:31:37.780Z,63.40
2023-05-06T03:36:39.307Z,63.41
2023-05-06T03:41:40.802Z,63.41
2023-05-06T03:46:42.386Z,63.90
2023-05-06T03:51:43.902Z,64.18
2023-05-06T03:56:45.336Z,65.06
2023-05-06T04:01:46.877Z,65.14
2023-05-06T04:06:48.343Z,66.41
2023-05-06T04:11:49.778Z,66.58
2023-05-06T04:16:51.228Z,67.48
2023-05-06T04:21:52.652Z,67.29
2023-05-06T04:26:54.149Z,68.31
2023-05-06T04:31:55.766Z,68.83
2023-05-06T04:36:58.590Z,69.47
2023-05-06T04:42:00.094Z,70.06
2023-05-06T04:47:01.621Z,70.09
2023-05-06T04:52:04.401Z,70.29
2023-05-06T04:57:05.918Z,69.42
2023-05-06T05:02:07.369Z,69.72
2023-05-06T05:07:09.001Z,69.29
2023-05-06T05:12:10.409Z,70.07
2023-05-06T05:17:11.894Z,70.04
2023-05-06T05:22:13.374Z,68.71
2023-05-06T05:27:14.838Z,67.70
2023-05-06T05:32:16.432Z,67.37
2023-05-06T05:37:17.859Z,68.75
2023-05-06T05:42:20.092Z,68.33
2023-05-06T05:47:21.863Z,68.61
2023-05-06T05:52:23.390Z,69.11
2023-05-06T05:57:24.867Z,68.87
2023-05-06T06:02:26.563Z,68.50
2023-05-06T06:07:28.121Z,70.39
2023-05-06T06:12:29.573Z,70.68
2023-05-06T06:17:31.090Z,70.05
2023-05-06T06:22:32.532Z,71.70
2023-05-06T06:27:36.063Z,71.69
2023-05-06T06:32:47.641Z,72.79
2023-05-06T06:37:49.322Z,73.26
2023-05-06T06:42:51.210Z,74.01
2023-05-06T06:47:53.638Z,75.23
2023-05-06T06:52:55.118Z,75.61
2023-05-06T06:57:56.554Z,77.22
2023-05-06T07:02:58.080Z,78.40
2023-05-06T07:07:59.541Z,78.64
2023-05-06T07:13:01.090Z,78.51
2023-05-06T07:18:02.613Z,78.86
2023-05-06T07:23:04.092Z,78.96
2023-05-06T07:28:05.784Z,80.10
2023-05-06T07:33:07.685Z,79.93
2023-05-06T07:38:09.208Z,80.48
2023-05-06T07:43:10.705Z,84.54
2023-05-06T07:48:12.499Z,82.36
2023-05-06T07:53:14.025Z,83.62
2023-05-06T07:58:15.815Z,84.28
2023-05-06T08:03:17.352Z,83.60
2023-05-06T08:08:19.924Z,83.24
2023-05-06T08:13:21.687Z,86.82
2023-05-06T08:18:23.554Z,87.64
2023-05-06T08:23:25.056Z,89.17
2023-05-06T08:28:26.552Z,85.92
2023-05-06T08:33:30.887Z,86.81
2023-05-06T08:38:32.374Z,87.63
2023-05-06T08:43:40.113Z,85.66
2023-05-06T08:48:41.597Z,85.38
2023-05-06T08:53:48.222Z,84.34
2023-05-06T08:58:52.014Z,84.49
2023-05-06T09:03:55.928Z,86.29
2023-05-06T09:08:57.688Z,85.56
2023-05-06T09:14:12.348Z,85.85
2023-05-06T09:19:14.789Z,85.83
2023-05-06T09:24:17.166Z,86.14
2023-05-06T09:29:18.640Z,85.44
2023-05-06T09:34:21.160Z,85.51
2023-05-06T09:39:26.609Z,84.27
2023-05-06T09:44:29.000Z,85.31
2023-05-06T09:49:30.581Z,84.35
2023-05-06T09:54:32.661Z,84.04
2023-05-06T09:59:34.680Z,84.33
2023-05-06T10:04:38.481Z,85.35
2023-05-06T10:09:41.798Z,85.85
2023-05-06T10:14:43.226Z,85.34
2023-05-06T10:19:52.303Z,85.35
2023-05-06T10:25:06.321Z,85.75
2023-05-06T10:30:10.301Z,88.13
2023-05-06T10:35:17.601Z,86.87
2023-05-06T10:40:19.591Z,86.58
2023-05-06T10:45:21.278Z,87.11
2023-05-06T10:50:24.047Z,87.40
2023-05-06T10:55:32.815Z,88.93
2023-05-06T11:00:34.806Z,87.39
2023-05-06T11:05:50.608Z,86.62
2023-05-06T11:10:53.046Z,86.25
2023-05-06T11:15:55.821Z,88.17
2023-05-06T11:21:00.526Z,85.60
2023-05-06T11:26:07.190Z,86.39
2023-05-06T11:31:09.806Z,85.44
2023-05-06T11:36:15.330Z,86.71
2023-05-06T11:41:17.694Z,86.48
2023-05-06T11:46:20.622Z,86.35
2023-05-06T11:51:23.197Z,85.98
2023-05-06T11:56:25.032Z,85.09
2023-05-06T12:01:26.474Z,83.96
2023-05-06T12:06:34.288Z,85.58
2023-05-06T12:11:36.627Z,85.43
2023-05-06T12:16:38.708Z,83.89
2023-05-06T12:21:40.302Z,82.59
2023-05-06T12:26:49.282Z,84.49
2023-05-06T12:32:06.289Z,84.43
2023-05-06T12:37:11.454Z,84.18
2023-05-06T12:42:20.450Z,84.16
2023-05-06T12:47:22.868Z,83.65
2023-05-06T12:52:29.874Z,84.12
2023-05-06T12:57:31.476Z,84.21
2023-05-06T13:02:32.990Z,83.46
2023-05-06T13:07:34.501Z,85.03
2023-05-06T13:12:36.273Z,84.41
2023-05-06T13:17:37.868Z,83.75
2023-05-06T13:22:53.326Z,83.01
2023-05-06T13:27:56.031Z,83.44
2023-05-06T13:32:57.829Z,82.29
2023-05-06T13:37:59.641Z,85.51
2023-05-06T13:43:01.100Z,85.11
2023-05-06T13:48:02.700Z,85.48
2023-05-06T13:53:04.414Z,84.65
2023-05-06T13:58:07.033Z,84.51
2023-05-06T14:03:08.590Z,85.09
2023-05-06T14:08:10.226Z,85.31
2023-05-06T14:13:11.789Z,84.75
2023-05-06T14:18:13.348Z,87.07
2023-05-06T14:23:14.824Z,86.47
2023-05-06T14:28:16.395Z,86.36
2023-05-06T14:33:17.817Z,86.99
2023-05-06T14:38:19.930Z,87.03
2023-05-06T14:43:21.494Z,87.31
2023-05-06T14:48:25.289Z,87.23
2023-05-06T14:53:26.738Z,86.61
2023-05-06T14:58:28.215Z,86.53
2023-05-06T15:03:29.660Z,86.30
2023-05-06T15:08:31.478Z,86.66
2023-05-06T15:13:32.942Z,87.05
2023-05-06T15:18:34.358Z,87.28
2023-05-06T15:23:35.810Z,87.05
2023-05-06T15:28:37.234Z,88.40
2023-05-06T15:33:38.654Z,88.21
2023-05-06T15:38:51.927Z,88.56
2023-05-06T15:43:55.996Z,89.05
2023-05-06T15:49:15.656Z,88.74
2023-05-06T15:54:19.179Z,88.08
2023-05-06T15:59:20.624Z,89.09
2023-05-06T16:04:22.608Z,89.00
2023-05-06T16:09:24.449Z,89.67
2023-05-06T16:14:25.855Z,89.18
2023-05-06T16:19:27.339Z,89.84
2023-05-06T16:24:28.795Z,90.41
2023-05-06T16:29:30.328Z,90.04
2023-05-06T16:34:31.872Z,89.88
2023-05-06T16:39:33.306Z,89.99
2023-05-06T16:44:35.130Z,90.13
2023-05-06T16:49:36.576Z,90.06
2023-05-06T16:54:38.125Z,89.90
2023-05-06T16:59:39.574Z,89.65
2023-05-06T17:04:41.413Z,89.29
2023-05-06T17:09:43.263Z,88.63
2023-05-06T17:14:44.808Z,88.35
2023-05-06T17:19:46.241Z,88.52
2023-05-06T17:24:47.717Z,88.74
2023-05-06T17:29:49.190Z,88.73
2023-05-06T17:34:50.675Z,88.63
2023-05-06T17:39:53.274Z,88.62
2023-05-06T17:44:54.832Z,90.42
2023-05-06T17:49:56.423Z,91.14
2023-05-06T17:55:16.504Z,92.32
2023-05-06T18:00:19.288Z,90.61
2023-05-06T18:05:21.767Z,91.90
2023-05-06T18:10:23.243Z,92.71
2023-05-06T18:15:25.746Z,92.39
2023-05-06T18:20:27.311Z,92.18
2023-05-06T18:25:28.727Z,92.14
2023-05-06T18:30:30.353Z,92.12
2023-05-06T18:35:31.764Z,92.34
2023-05-06T18:40:34.014Z,92.07
2023-05-06T18:45:35.540Z,91.70
2023-05-06T18:50:37.374Z,91.30
2023-05-06T18:55:38.783Z,91.30
2023-05-06T19:00:40.924Z,90.99
2023-05-06T19:05:42.457Z,90.66
2023-05-06T19:10:43.900Z,89.75
2023-05-06T19:15:45.473Z,90.13
2023-05-06T19:20:46.930Z,90.02
2023-05-06T19:25:48.378Z,89.58
2023-05-06T19:30:49.813Z,88.92
2023-05-06T19:35:51.571Z,89.41
2023-05-06T19:40:53.615Z,90.19
2023-05-06T19:45:55.237Z,89.78
2023-05-06T19:50:56.688Z,89.20
2023-05-06T19:55:59.285Z,89.74
2023-05-06T20:01:00.742Z,89.04
2023-05-06T20:06:02.409Z,89.51
2023-05-06T20:11:04.220Z,89.68
2023-05-06T20:16:05.955Z,89.23
2023-05-06T20:21:07.453Z,89.35
2023-05-06T20:26:08.911Z,90.12
2023-05-06T20:31:10.756Z,89.50
2023-05-06T20:36:12.319Z,89.53
2023-05-06T20:41:13.719Z,89.63
2023-05-06T20:46:15.209Z,89.29
2023-05-06T20:51:16.898Z,90.15
2023-05-06T20:56:24.796Z,89.97
2023-05-06T21:01:27.342Z,90.01
2023-05-06T21:06:28.947Z,90.93
2023-05-06T21:11:30.374Z,90.55
2023-05-06T21:16:31.821Z,90.87
2023-05-06T21:21:33.562Z,90.91
2023-05-06T21:26:35.709Z,91.23
2023-05-06T21:31:37.396Z,91.50
2023-05-06T21:36:38.943Z,91.74
2023-05-06T21:41:40.522Z,90.83
2023-05-06T21:46:41.994Z,91.15
2023-05-06T21:51:43.521Z,90.99
2023-05-06T21:56:44.946Z,91.18
2023-05-06T22:01:46.379Z,91.41
2023-05-06T22:06:47.829Z,91.54
2023-05-06T22:11:49.732Z,90.73
2023-05-06T22:16:52.727Z,90.96
2023-05-06T22:21:54.452Z,89.20
2023-05-06T22:26:55.955Z,90.19
2023-05-06T22:31:57.460Z,90.74
2023-05-06T22:37:00.482Z,90.18
2023-05-06T22:42:02.575Z,89.62
2023-05-06T22:47:04.034Z,89.91
2023-05-06T22:52:05.609Z,89.46
2023-05-06T22:57:07.205Z,88.88
2023-05-06T23:02:08.713Z,89.73
2023-05-06T23:07:10.244Z,90.51
2023-05-06T23:12:11.706Z,89.99
2023-05-06T23:17:13.157Z,89.07
2023-05-06T23:22:14.645Z,89.87
2023-05-06T23:27:16.060Z,90.01
2023-05-06T23:32:17.698Z,89.45
2023-05-06T23:37:19.155Z,89.73
2023-05-06T23:42:21.286Z,89.56
2023-05-06T23:47:24.517Z,89.71
2023-05-06T23:52:26.075Z,90.10
2023-05-06T23:57:27.526Z,89.94
